Time;durP1;ratioP1;P1;durP2;ratioP2;P2;SDS_P1;SDS_P2;PMS_P1;PMS_P2;Temp;Humidity;BMP_temperature;BMP_pressure;BME280_temperature;BME280_humidity;BME280_pressure;Samples;Min_cycle;Max_cycle;Signal;HPM_P1;HPM_P2
2020/12/08 00:00:21;;;;;;;0.80;0.70;;;;;;;6.77;67.88;95704.72;1799826;78;21240;-85
2020/12/08 00:02:50;;;;;;;1.25;1.00;;;;;;;6.81;68.07;95697.42;1803495;78;21087;-86
2020/12/08 00:05:20;;;;;;;1.20;0.90;;;;;;;6.83;67.40;95696.30;1790066;78;21409;-85
2020/12/08 00:07:46;;;;;;;1.20;1.00;;;;;;;6.86;67.79;95704.17;1824146;78;21137;-85
2020/12/08 00:10:12;;;;;;;0.98;0.70;;;;;;;6.84;67.90;95694.03;1790763;78;21311;-85
2020/12/08 00:12:40;;;;;;;20.55;10.58;;;;;;;6.79;67.82;95693.73;1799424;78;21090;-86
2020/12/08 00:15:06;;;;;;;7.20;3.20;;;;;;;6.74;67.93;95683.12;1803910;78;21113;-85
2020/12/08 00:17:32;;;;;;;8.08;5.85;;;;;;;6.65;67.75;95691.91;1789546;78;21121;-86
2020/12/08 00:20:00;;;;;;;14.45;8.75;;;;;;;6.62;67.82;95687.09;1795654;78;21125;-86
2020/12/08 00:22:26;;;;;;;2.10;1.50;;;;;;;6.55;68.11;95687.00;1813233;78;21093;-87
2020/12/08 00:24:52;;;;;;;1.45;0.90;;;;;;;6.54;67.61;95684.11;1795032;78;21107;-85
2020/12/08 00:27:19;;;;;;;1.20;0.80;;;;;;;6.56;67.44;95685.22;1796621;78;21091;-85
2020/12/08 00:29:45;;;;;;;1.30;0.80;;;;;;;6.57;67.41;95678.59;1791821;78;21133;-85
2020/12/08 00:32:11;;;;;;;1.10;0.65;;;;;;;6.59;67.96;95688.73;1794481;78;21101;-85
2020/12/08 00:34:37;;;;;;;13.65;9.30;;;;;;;6.56;67.72;95691.19;1787559;79;21231;-85
2020/12/08 00:37:04;;;;;;;4.92;2.77;;;;;;;6.48;68.04;95702.04;1790533;78;21094;-85
2020/12/08 00:39:32;;;;;;;11.73;7.47;;;;;;;6.35;67.72;95698.77;1779186;78;21141;-86
2020/12/08 00:41:58;;;;;;;14.95;10.03;;;;;;;6.36;67.87;95693.92;1806696;78;21118;-85
2020/12/08 00:44:24;;;;;;;12.88;8.98;;;;;;;6.31;67.96;95701.36;1801389;78;21109;-85
2020/12/08 00:46:50;;;;;;;14.15;8.93;;;;;;;6.33;68.34;95706.66;1781002;79;21245;-85
2020/12/08 00:49:17;;;;;;;12.25;8.60;;;;;;;6.30;68.24;95702.33;1791348;78;21118;-85
2020/12/08 00:51:43;;;;;;;14.98;9.75;;;;;;;6.30;68.68;95710.87;1793957;78;21121;-86
2020/12/08 00:54:09;;;;;;;23.90;17.05;;;;;;;6.27;68.68;95715.58;1800389;78;21084;-85
2020/12/08 00:56:36;;;;;;;26.80;18.52;;;;;;;6.16;68.46;95719.83;1793166;78;21337;-86
2020/12/08 00:59:02;;;;;;;22.10;15.60;;;;;;;6.09;68.51;95721.49;1802392;78;21332;-85
2020/12/08 01:01:29;;;;;;;29.52;20.75;;;;;;;6.07;68.95;95724.73;1801057;78;21236;-85
2020/12/08 01:03:55;;;;;;;27.10;18.23;;;;;;;6.03;69.03;95719.60;1795374;78;21805;-86
2020/12/08 01:06:22;;;;;;;25.48;17.40;;;;;;;6.01;69.26;95721.03;1801281;78;21128;-86
2020/12/08 01:08:48;;;;;;;23.60;15.93;;;;;;;6.00;69.20;95718.14;1802725;78;21460;-85
2020/12/08 01:11:14;;;;;;;20.72;15.00;;;;;;;5.98;69.20;95732.50;1799576;78;21331;-85
2020/12/08 01:13:41;;;;;;;24.27;16.95;;;;;;;5.96;69.27;95731.06;1749780;78;21094;-86
2020/12/08 01:16:07;;;;;;;23.42;15.30;;;;;;;5.93;69.05;95729.62;1768525;78;21236;-85
2020/12/08 01:18:33;;;;;;;14.10;9.88;;;;;;;5.90;69.48;95720.95;1801356;78;21112;-86
2020/12/08 01:21:00;;;;;;;13.22;8.78;;;;;;;5.87;69.63;95712.72;1780249;78;21287;-85
2020/12/08 01:23:26;;;;;;;11.22;7.90;;;;;;;5.86;69.93;95711.92;1797308;78;21134;-85
2020/12/08 01:25:52;;;;;;;10.78;7.58;;;;;;;5.84;70.10;95709.97;1799527;78;21101;-85
2020/12/08 01:28:18;;;;;;;12.58;7.90;;;;;;;5.83;70.37;95708.36;1792806;78;21101;-86
2020/12/08 01:30:49;;;;;;;9.98;6.87;;;;;;;5.78;70.59;95708.08;1797713;78;21108;-85
2020/12/08 01:33:15;;;;;;;11.15;7.00;;;;;;;5.80;70.54;95711.77;1755270;80;21099;-85
2020/12/08 01:35:43;;;;;;;11.97;8.93;;;;;;;5.80;70.56;95708.70;1802975;78;21113;-85
2020/12/08 01:38:10;;;;;;;18.90;13.35;;;;;;;5.80;70.70;95708.70;1800065;78;21453;-85
2020/12/08 01:40:36;;;;;;;26.48;16.95;;;;;;;5.81;70.30;95711.59;1798304;78;21224;-85
2020/12/08 01:43:02;;;;;;;31.17;22.02;;;;;;;5.76;69.88;95711.31;1796087;78;21097;-85
2020/12/08 01:45:28;;;;;;;30.08;20.97;;;;;;;5.69;69.81;95703.91;1799517;78;21802;-86
2020/12/08 01:47:54;;;;;;;29.90;19.57;;;;;;;5.63;69.96;95713.12;1800657;78;21100;-85
2020/12/08 01:50:20;;;;;;;25.35;18.32;;;;;;;5.64;70.24;95707.48;1800979;78;21100;-85
2020/12/08 01:52:47;;;;;;;21.95;14.40;;;;;;;5.62;70.30;95711.52;1794780;78;21094;-85
2020/12/08 01:55:14;;;;;;;23.30;15.23;;;;;;;5.61;70.50;95720.71;1797692;78;21106;-85
2020/12/08 01:57:42;;;;;;;25.10;18.02;;;;;;;5.56;70.42;95721.22;1793820;78;21099;-85
2020/12/08 02:00:08;;;;;;;25.62;17.95;;;;;;;5.45;69.84;95732.36;1799167;78;21098;-85
2020/12/08 02:02:34;;;;;;;29.02;19.70;;;;;;;5.47;70.44;95733.80;1796806;78;21068;-85
2020/12/08 02:05:01;;;;;;;23.87;17.45;;;;;;;5.49;70.22;95728.48;1803267;78;21351;-85
2020/12/08 02:07:28;;;;;;;26.33;19.42;;;;;;;5.48;70.57;95730.25;1799783;78;21218;-86
2020/12/08 02:09:54;;;;;;;26.17;17.92;;;;;;;5.47;70.64;95723.98;1801940;78;21077;-85
2020/12/08 02:12:20;;;;;;;24.25;16.90;;;;;;;5.46;70.77;95728.81;1791887;78;21337;-85
2020/12/08 02:14:46;;;;;;;22.27;15.08;;;;;;;5.46;70.77;95729.62;1790114;78;21083;-86
2020/12/08 02:17:12;;;;;;;23.65;16.30;;;;;;;5.42;70.87;95721.91;1789798;78;21277;-85
2020/12/08 02:19:38;;;;;;;22.70;16.25;;;;;;;5.39;70.90;95725.63;1783994;78;21344;-85
2020/12/08 02:22:04;;;;;;;23.12;16.67;;;;;;;5.39;70.91;95728.20;1775508;78;21116;-85
2020/12/08 02:24:30;;;;;;;26.35;18.77;;;;;;;5.41;70.97;95725.45;1791485;78;21133;-86
2020/12/08 02:26:56;;;;;;;28.20;20.23;;;;;;;5.42;71.01;95724.00;1791029;78;21069;-86
2020/12/08 02:29:22;;;;;;;28.52;19.27;;;;;;;5.43;70.94;95733.81;1798111;78;21093;-85
2020/12/08 02:31:48;;;;;;;31.00;22.65;;;;;;;5.31;70.82;95729.49;1800349;78;21098;-85
2020/12/08 02:34:14;;;;;;;36.28;26.57;;;;;;;5.30;70.95;95740.77;1796462;78;21117;-85
2020/12/08 02:36:40;;;;;;;35.03;25.30;;;;;;;5.26;70.83;95735.63;1796927;78;21140;-86
2020/12/08 02:39:06;;;;;;;38.55;26.97;;;;;;;5.19;70.89;95732.57;1793266;78;21105;-85
2020/12/08 02:41:32;;;;;;;11.48;7.83;;;;;;;5.11;70.86;95728.25;1789667;78;21857;-86
2020/12/08 02:43:58;;;;;;;11.80;7.72;;;;;;;5.06;70.94;95724.09;1793923;78;21402;-85
2020/12/08 02:46:24;;;;;;;14.98;9.95;;;;;;;5.12;71.02;95720.84;1791896;78;21288;-86
2020/12/08 02:48:50;;;;;;;18.07;12.85;;;;;;;5.18;71.22;95724.52;1800888;78;21102;-86
2020/12/08 02:51:18;;;;;;;6.85;4.47;;;;;;;5.22;71.17;95721.97;1801190;78;21303;-86
2020/12/08 02:53:44;;;;;;;30.37;20.62;;;;;;;5.29;70.99;95716.46;1789494;78;21319;-86
2020/12/08 02:56:10;;;;;;;14.23;10.30;;;;;;;5.23;70.83;95719.22;1803317;78;21102;-85
2020/12/08 02:58:36;;;;;;;4.30;2.10;;;;;;;5.16;71.00;95727.27;1794871;78;21867;-85
2020/12/08 03:01:04;;;;;;;1.95;1.20;;;;;;;5.19;71.13;95723.07;1789666;78;21534;-87
2020/12/08 03:03:30;;;;;;;1.60;1.10;;;;;;;5.30;71.09;95727.89;1782150;78;21332;-85
2020/12/08 03:05:57;;;;;;;1.50;1.07;;;;;;;5.39;70.72;95726.11;1798686;78;21125;-85
2020/12/08 03:08:23;;;;;;;1.22;1.10;;;;;;;5.49;70.50;95719.45;1787212;78;21108;-86
2020/12/08 03:10:49;;;;;;;0.93;0.75;;;;;;;5.58;70.26;95727.01;1796667;78;21228;-85
2020/12/08 03:13:15;;;;;;;1.20;0.90;;;;;;;5.68;70.06;95725.50;1793602;78;21109;-85
2020/12/08 03:15:41;;;;;;;0.80;0.80;;;;;;;5.76;69.92;95724.69;1805341;78;21239;-85
2020/12/08 03:18:08;;;;;;;1.30;1.02;;;;;;;5.80;69.81;95721.59;1790922;79;21318;-86
2020/12/08 03:20:34;;;;;;;1.65;1.40;;;;;;;5.82;69.62;95727.38;1801285;79;22426;-85
2020/12/08 03:23:01;;;;;;;11.68;7.92;;;;;;;5.86;69.72;95725.30;1789812;79;21247;-85
2020/12/08 03:25:27;;;;;;;26.62;17.80;;;;;;;5.86;69.56;95732.55;1800033;79;21322;-85
2020/12/08 03:27:53;;;;;;;41.00;26.80;;;;;;;5.82;69.35;95735.12;1801037;78;21117;-85
2020/12/08 03:30:19;;;;;;;31.20;23.10;;;;;;;5.66;68.92;95736.47;1792415;79;21124;-85
2020/12/08 03:32:45;;;;;;;25.23;16.12;;;;;;;5.45;68.97;95731.88;1797731;78;22024;-85
2020/12/08 03:35:11;;;;;;;26.37;18.15;;;;;;;5.46;69.06;95740.41;1795053;79;21081;-86
2020/12/08 03:37:37;;;;;;;24.10;16.87;;;;;;;5.47;69.35;95742.81;1809866;79;21113;-85
2020/12/08 03:40:03;;;;;;;30.77;22.42;;;;;;;5.47;69.41;95746.69;1798571;79;21232;-86
2020/12/08 03:42:29;;;;;;;36.42;26.55;;;;;;;5.25;68.75;95737.09;1792018;79;21173;-86
2020/12/08 03:44:55;;;;;;;40.90;26.30;;;;;;;5.06;69.03;95736.96;1806061;78;21061;-85
2020/12/08 03:47:22;;;;;;;35.73;25.20;;;;;;;4.95;69.39;95736.80;1787107;79;21101;-86
2020/12/08 03:49:48;;;;;;;32.93;24.35;;;;;;;4.87;69.54;95732.13;1807528;79;21209;-85
2020/12/08 03:52:14;;;;;;;25.70;17.02;;;;;;;4.74;69.74;95739.07;1797150;79;21121;-87
2020/12/08 03:54:40;;;;;;;21.82;16.40;;;;;;;4.70;70.05;95733.91;1795136;78;21241;-85
2020/12/08 03:57:06;;;;;;;21.93;15.00;;;;;;;4.70;70.42;95741.63;1802004;79;21117;-85
2020/12/08 03:59:32;;;;;;;23.25;18.00;;;;;;;4.74;70.57;95741.16;1792711;79;21204;-85
2020/12/08 04:01:59;;;;;;;25.68;19.23;;;;;;;4.79;70.67;95741.95;1793804;78;21090;-86
2020/12/08 04:04:25;;;;;;;35.23;25.23;;;;;;;4.80;70.66;95744.37;1799440;78;21300;-85
2020/12/08 04:06:51;;;;;;;36.85;26.42;;;;;;;4.70;70.52;95757.06;1802848;79;21066;-86
2020/12/08 04:09:17;;;;;;;38.20;26.02;;;;;;;4.51;70.20;95765.90;1792321;78;21394;-85
2020/12/08 04:11:43;;;;;;;34.30;24.57;;;;;;;4.44;70.63;95763.65;1804917;79;22120;-85
2020/12/08 04:14:09;;;;;;;34.40;24.00;;;;;;;4.36;70.72;95767.00;1795282;78;21118;-85
2020/12/08 04:16:37;;;;;;;30.27;22.30;;;;;;;4.29;70.82;95769.89;1797331;78;21120;-85
2020/12/08 04:19:03;;;;;;;30.80;22.40;;;;;;;4.22;70.96;95770.98;1811114;78;21332;-85
2020/12/08 04:21:29;;;;;;;28.83;20.25;;;;;;;4.16;71.05;95763.10;1802143;78;21092;-85
2020/12/08 04:24:02;;;;;;;30.75;22.52;;;;;;;4.13;71.03;95764.23;1803341;78;21113;-86
2020/12/08 04:26:29;;;;;;;25.65;19.48;;;;;;;4.11;70.96;95761.01;1800983;78;21984;-85
2020/12/08 04:28:56;;;;;;;28.75;20.30;;;;;;;4.09;70.99;95765.98;1750135;80;22086;-85
2020/12/08 04:31:22;;;;;;;26.68;19.90;;;;;;;4.06;71.07;95762.42;1752110;81;21634;-86
2020/12/08 04:33:48;;;;;;;18.05;12.65;;;;;;;4.05;71.21;95751.81;1736675;81;21102;-85
2020/12/08 04:36:15;;;;;;;18.25;13.75;;;;;;;4.02;71.51;95747.80;1744956;81;21113;-85
2020/12/08 04:38:42;;;;;;;12.37;8.68;;;;;;;3.98;71.66;95746.51;1748543;80;21438;-85
2020/12/08 04:41:09;;;;;;;15.63;10.78;;;;;;;3.92;71.89;95747.14;1745581;80;21125;-85
2020/12/08 04:43:39;;;;;;;7.87;5.12;;;;;;;3.89;72.07;95744.86;1728709;81;21316;-85
2020/12/08 04:46:07;;;;;;;7.55;5.00;;;;;;;3.87;71.98;95754.49;1730151;81;21361;-86
2020/12/08 04:48:36;;;;;;;4.90;3.70;;;;;;;3.89;72.17;95752.56;1745463;81;21483;-85
2020/12/08 04:51:04;;;;;;;5.72;3.55;;;;;;;3.91;72.21;95763.05;1801383;78;21074;-85
2020/12/08 04:53:30;;;;;;;5.62;3.98;;;;;;;3.93;72.31;95768.03;1798922;78;21116;-85
2020/12/08 04:55:56;;;;;;;5.83;4.45;;;;;;;3.97;72.48;95777.03;1802112;78;21860;-86
2020/12/08 04:58:22;;;;;;;8.10;5.47;;;;;;;3.95;72.35;95784.58;1765577;80;21773;-85
2020/12/08 05:00:48;;;;;;;9.50;6.75;;;;;;;3.89;72.26;95781.64;1757594;80;21140;-85
2020/12/08 05:03:23;;;;;;;4.03;3.52;;;;;;;3.80;72.28;95781.30;1769034;80;21113;-85
2020/12/08 05:05:49;;;;;;;6.10;4.85;;;;;;;3.74;72.50;95781.09;1749117;80;21093;-85
2020/12/08 05:08:15;;;;;;;4.53;3.17;;;;;;;3.70;72.68;95789.59;1797048;78;21133;-85
2020/12/08 05:10:41;;;;;;;4.90;4.03;;;;;;;3.70;72.81;95788.79;1800660;78;21124;-85
2020/12/08 05:13:08;;;;;;;5.83;5.00;;;;;;;3.71;72.79;95789.12;1803642;78;21093;-85
2020/12/08 05:15:34;;;;;;;4.37;3.35;;;;;;;3.71;72.58;95783.98;1802909;78;21112;-85
2020/12/08 05:18:05;;;;;;;2.00;1.60;;;;;;;3.68;72.61;95785.58;1795547;78;21295;-85
2020/12/08 05:20:31;;;;;;;2.20;1.67;;;;;;;3.65;72.79;95794.88;1804243;78;21102;-85
2020/12/08 05:22:58;;;;;;;1.87;1.55;;;;;;;3.61;73.01;95795.67;1797540;78;21121;-85
2020/12/08 05:25:28;;;;;;;1.55;1.40;;;;;;;3.63;73.18;95796.80;1800043;78;21325;-86
2020/12/08 05:27:56;;;;;;;1.47;1.37;;;;;;;3.61;73.29;95793.91;1808732;78;21121;-85
2020/12/08 05:30:27;;;;;;;2.92;1.40;;;;;;;3.60;73.35;95794.06;1802156;78;21100;-85
2020/12/08 05:32:53;;;;;;;1.82;1.35;;;;;;;3.60;73.37;95792.30;1800477;78;21114;-85
2020/12/08 05:35:23;;;;;;;1.50;1.37;;;;;;;3.63;73.30;95787.80;1801832;78;21127;-85
2020/12/08 05:37:52;;;;;;;1.80;1.50;;;;;;;3.65;73.29;95784.60;1805425;78;21124;-85
2020/12/08 05:40:23;;;;;;;1.35;1.20;;;;;;;3.65;73.42;95788.45;1800177;78;21090;-86
2020/12/08 05:42:51;;;;;;;1.40;1.30;;;;;;;3.63;73.53;95788.61;1796974;78;21108;-85
2020/12/08 05:45:19;;;;;;;3.50;1.40;;;;;;;3.67;73.62;95786.53;1804579;78;21219;-85
2020/12/08 05:47:57;;;;;;;1.35;1.20;;;;;;;3.72;73.54;95776.59;1800331;78;21462;-85
2020/12/08 05:50:25;;;;;;;1.57;1.30;;;;;;;3.80;73.53;95779.22;1762704;80;21257;-85
2020/12/08 05:52:56;;;;;;;1.40;1.30;;;;;;;3.93;73.35;95779.59;1751055;80;21136;-85
2020/12/08 05:55:24;;;;;;;1.98;1.37;;;;;;;4.01;73.15;95780.89;1741886;80;21142;-85
2020/12/08 05:57:50;;;;;;;1.52;1.35;;;;;;;4.06;72.95;95788.13;1735865;82;21139;-86
2020/12/08 06:00:27;;;;;;;1.80;1.30;;;;;;;4.06;72.87;95782.50;1748907;82;21348;-86
2020/12/08 06:03:15;;;;;;;1.20;1.10;;;;;;;4.07;72.75;95786.72;1732655;82;21123;-85
2020/12/08 06:05:44;;;;;;;2.42;1.35;;;;;;;4.10;72.71;95788.97;1737901;81;21137;-85
2020/12/08 06:08:20;;;;;;;1.80;1.70;;;;;;;4.08;72.56;95786.23;1731069;82;21454;-85
2020/12/08 06:10:55;;;;;;;1.45;1.35;;;;;;;4.05;72.46;95781.38;1738968;81;21116;-85
2020/12/08 06:13:32;;;;;;;1.30;1.07;;;;;;;4.00;72.63;95800.33;1734361;82;21166;-85
2020/12/08 06:15:59;;;;;;;1.65;1.20;;;;;;;3.96;72.67;95799.84;1743014;81;21106;-85
2020/12/08 06:18:33;;;;;;;1.47;1.17;;;;;;;3.96;72.62;95800.32;1745346;82;21122;-85
2020/12/08 06:21:03;;;;;;;1.45;1.22;;;;;;;3.94;72.54;95808.67;1751029;81;21248;-85
2020/12/08 06:23:29;;;;;;;1.65;1.27;;;;;;;3.97;72.50;95815.59;1756788;81;21148;-85
2020/12/08 06:25:59;;;;;;;1.80;1.05;;;;;;;3.98;72.65;95812.53;1747660;81;21443;-85
2020/12/08 06:28:25;;;;;;;1.30;1.20;;;;;;;3.93;72.72;95807.06;1738872;81;21134;-86
2020/12/08 06:31:06;;;;;;;1.30;1.20;;;;;;;3.89;72.80;95815.53;1738348;81;21126;-85
2020/12/08 06:33:50;;;;;;;1.57;1.32;;;;;;;3.83;72.76;95814.88;1736549;81;21161;-85
2020/12/08 06:36:22;;;;;;;1.20;1.10;;;;;;;3.78;72.80;95815.34;1742434;81;21242;-85
2020/12/08 06:39:08;;;;;;;6.00;4.55;;;;;;;3.72;72.85;95824.94;1741667;81;21118;-86
2020/12/08 06:41:37;;;;;;;23.57;16.67;;;;;;;3.63;72.63;95837.42;1750266;81;21882;-86
2020/12/08 06:44:05;;;;;;;36.45;24.60;;;;;;;3.56;72.29;95837.20;1715142;81;21142;-86
2020/12/08 06:46:32;;;;;;;33.50;24.27;;;;;;;3.45;72.05;95835.39;1744683;81;21187;-84
2020/12/08 06:49:03;;;;;;;41.33;29.75;;;;;;;3.35;72.09;95842.38;1743623;82;21168;-85
2020/12/08 06:51:29;;;;;;;43.55;29.85;;;;;;;3.25;72.12;95846.30;1733539;81;21312;-85
2020/12/08 06:53:56;;;;;;;45.60;31.60;;;;;;;3.15;72.03;95854.59;1734524;82;21265;-86
2020/12/08 06:56:30;;;;;;;49.55;33.53;;;;;;;3.02;72.08;95861.38;1752160;80;21146;-85
2020/12/08 06:58:56;;;;;;;54.30;33.63;;;;;;;2.92;72.06;95871.70;1753838;80;21158;-85
2020/12/08 07:01:22;;;;;;;43.58;29.30;;;;;;;2.80;71.95;95866.48;1771614;80;21103;-85
2020/12/08 07:03:48;;;;;;;41.55;29.05;;;;;;;2.67;72.14;95864.75;1767832;80;21133;-85
2020/12/08 07:06:14;;;;;;;51.45;33.83;;;;;;;2.62;72.14;95863.10;1776697;80;21330;-85
2020/12/08 07:08:49;;;;;;;57.48;40.52;;;;;;;2.48;72.04;95872.57;1769026;80;21405;-85
2020/12/08 07:11:23;;;;;;;66.97;46.65;;;;;;;2.37;72.10;95882.06;1745679;82;21146;-86
2020/12/08 07:13:58;;;;;;;66.47;44.40;;;;;;;2.26;72.16;95877.12;1752117;81;21288;-86
2020/12/08 07:16:26;;;;;;;64.12;42.10;;;;;;;2.10;72.49;95868.76;1739893;81;21544;-85
2020/12/08 07:18:53;;;;;;;59.20;39.25;;;;;;;2.03;72.59;95860.52;1747594;81;21140;-85
2020/12/08 07:21:20;;;;;;;55.80;39.23;;;;;;;1.99;72.83;95861.75;1720624;82;21143;-86
2020/12/08 07:23:52;;;;;;;60.17;40.25;;;;;;;1.98;72.95;95861.42;1735531;81;21092;-85
2020/12/08 07:26:25;;;;;;;56.50;37.60;;;;;;;1.99;73.26;95856.63;1748268;81;21098;-85
2020/12/08 07:29:02;;;;;;;59.25;39.00;;;;;;;2.03;73.37;95866.92;1806937;77;23129;-83
2020/12/08 07:31:30;;;;;;;51.45;34.98;;;;;;;1.99;73.41;95882.25;1769644;78;21086;-83
2020/12/08 07:33:56;;;;;;;53.08;34.23;;;;;;;1.94;73.53;95878.00;1786438;78;21228;-83
2020/12/08 07:36:32;;;;;;;62.65;41.75;;;;;;;1.93;73.57;95895.13;1767147;78;21098;-83
2020/12/08 07:39:01;;;;;;;61.92;43.28;;;;;;;1.87;73.43;95888.02;1785846;78;21130;-83
2020/12/08 07:41:30;;;;;;;60.92;42.75;;;;;;;1.80;73.43;95890.81;1777103;78;21145;-82
2020/12/08 07:43:58;;;;;;;62.03;41.45;;;;;;;1.77;73.60;95887.22;1778008;78;21133;-84
2020/12/08 07:46:28;;;;;;;67.75;45.23;;;;;;;1.75;73.73;95894.24;1765902;78;21117;-84
2020/12/08 07:49:08;;;;;;;68.55;44.10;;;;;;;1.64;73.64;95907.23;1771032;78;21406;-83
2020/12/08 07:51:36;;;;;;;65.00;45.88;;;;;;;1.58;73.67;95909.85;1778204;78;21113;-84
2020/12/08 07:54:04;;;;;;;70.32;47.58;;;;;;;1.56;73.78;95902.78;1777013;78;21121;-85
2020/12/08 07:56:35;;;;;;;69.62;45.12;;;;;;;1.54;73.86;95902.12;1769937;78;21141;-83
2020/12/08 07:59:03;;;;;;;61.18;42.43;;;;;;;1.53;74.03;95900.50;1785102;78;21091;-85
2020/12/08 08:01:41;;;;;;;51.55;36.03;;;;;;;1.52;74.20;95902.73;1749269;80;21110;-84
2020/12/08 08:04:10;;;;;;;67.42;42.48;;;;;;;1.52;74.55;95902.73;1760228;79;22002;-84
2020/12/08 08:06:38;;;;;;;69.25;44.73;;;;;;;1.55;74.47;95915.25;1762124;80;21260;-84
2020/12/08 08:09:06;;;;;;;64.55;42.95;;;;;;;1.50;74.36;95906.72;1767163;80;21145;-86
2020/12/08 08:11:35;;;;;;;63.60;43.70;;;;;;;1.54;74.44;95901.31;1755068;80;21251;-84
2020/12/08 08:14:04;;;;;;;63.08;41.45;;;;;;;1.56;74.51;95901.98;1761022;80;21296;-86
2020/12/08 08:16:30;;;;;;;74.67;51.48;;;;;;;1.54;74.72;95904.67;1713453;81;21703;-84
2020/12/08 08:18:59;;;;;;;75.65;48.50;;;;;;;;;;1729777;81;21356;-84
2020/12/08 08:21:25;;;;;;;79.03;48.33;;;;;;;1.46;74.59;95921.19;1761306;80;21443;-85
2020/12/08 08:23:52;;;;;;;76.33;46.98;;;;;;;1.47;74.53;95910.83;1753073;80;21122;-84
2020/12/08 08:26:18;;;;;;;64.30;45.92;;;;;;;1.49;74.51;95906.86;1754284;80;21157;-85
2020/12/08 08:28:48;;;;;;;75.75;46.77;;;;;;;1.48;74.63;95900.12;1745904;80;21165;-85
2020/12/08 08:31:15;;;;;;;58.95;40.33;;;;;;;1.44;74.80;95894.91;1743452;80;21272;-85
2020/12/08 08:33:41;;;;;;;73.10;47.15;;;;;;;1.41;75.03;95902.88;1742868;80;21194;-85
2020/12/08 08:36:07;;;;;;;73.78;52.43;;;;;;;1.37;74.97;95911.78;1743337;80;21126;-84
2020/12/08 08:38:33;;;;;;;73.95;48.75;;;;;;;1.42;74.95;95917.29;1742597;80;21634;-85
2020/12/08 08:40:59;;;;;;;73.85;47.20;;;;;;;1.38;74.78;95914.67;1741017;81;21137;-85
2020/12/08 08:43:25;;;;;;;71.02;46.95;;;;;;;1.37;74.88;95918.98;1741967;80;21106;-84
2020/12/08 08:45:55;;;;;;;72.50;44.95;;;;;;;1.39;74.98;95925.25;1742640;80;21331;-86
2020/12/08 08:48:21;;;;;;;74.47;45.60;;;;;;;1.39;75.05;95924.77;1742817;81;21137;-85
2020/12/08 08:50:48;;;;;;;73.52;45.63;;;;;;;1.39;75.02;95932.45;1741645;81;21141;-83
2020/12/08 08:53:15;;;;;;;67.58;44.42;;;;;;;1.42;74.95;95929.61;1739949;80;21160;-84
2020/12/08 08:55:41;;;;;;;73.25;45.30;;;;;;;1.43;75.07;95922.27;1741513;81;21311;-84
2020/12/08 08:58:09;;;;;;;69.00;42.78;;;;;;;1.39;75.15;95915.81;1721372;80;21123;-84
2020/12/08 09:00:38;;;;;;;51.10;30.05;;;;;;;1.35;75.79;95909.83;1728010;81;22048;-84
2020/12/08 09:03:06;;;;;;;38.55;24.02;;;;;;;1.38;76.32;95903.96;1741821;80;21355;-85
2020/12/08 09:05:33;;;;;;;12.07;8.53;;;;;;;1.45;76.63;95895.25;1743540;80;21079;-85
2020/12/08 09:07:59;;;;;;;9.95;5.12;;;;;;;1.55;77.01;95890.13;1745417;80;21122;-84
2020/12/08 09:10:26;;;;;;;2.77;2.20;;;;;;;1.69;77.24;95887.94;1744914;80;21130;-85
2020/12/08 09:12:55;;;;;;;3.05;2.25;;;;;;;1.82;77.39;95885.08;1743908;80;21114;-85
2020/12/08 09:15:22;;;;;;;3.77;2.90;;;;;;;1.97;77.33;95889.27;1691199;83;21096;-84
2020/12/08 09:17:52;;;;;;;5.95;4.17;;;;;;;2.14;77.51;95887.25;1730157;80;21325;-84
2020/12/08 09:20:18;;;;;;;19.80;12.00;;;;;;;2.33;77.41;95899.97;1746990;80;21087;-84
2020/12/08 09:22:45;;;;;;;35.08;22.10;;;;;;;2.49;77.29;95895.98;1742092;80;21233;-84
2020/12/08 09:25:12;;;;;;;57.45;39.15;;;;;;;2.66;77.17;95913.96;1746028;81;21141;-84
2020/12/08 09:27:38;;;;;;;58.38;39.60;;;;;;;2.73;76.87;95910.33;1746368;81;21166;-83
2020/12/08 09:30:05;;;;;;;63.35;39.63;;;;;;;2.79;76.81;95916.66;1743729;80;21233;-85
2020/12/08 09:32:31;;;;;;;59.53;40.67;;;;;;;2.76;76.60;95920.30;1746797;80;21094;-85
2020/12/08 09:34:57;;;;;;;60.03;39.92;;;;;;;2.82;76.67;95917.17;1699926;82;21098;-85
2020/12/08 09:37:25;;;;;;;60.60;40.50;;;;;;;2.88;76.54;95914.50;1747139;80;21158;-85
2020/12/08 09:39:51;;;;;;;72.87;46.92;;;;;;;2.85;76.43;95913.03;1746706;80;21137;-85
2020/12/08 09:42:18;;;;;;;70.83;46.55;;;;;;;2.82;76.28;95897.12;1745346;80;21114;-86
2020/12/08 09:44:47;;;;;;;49.45;30.32;;;;;;;2.93;76.34;95912.32;1746664;81;21389;-83
2020/12/08 09:47:16;;;;;;;56.10;35.45;;;;;;;3.03;76.24;95914.32;1751111;80;21154;-84
2020/12/08 09:49:44;;;;;;;58.33;39.27;;;;;;;3.11;76.94;95931.58;1747802;80;21149;-84
2020/12/08 09:52:10;;;;;;;61.13;38.85;;;;;;;3.10;76.56;95924.35;1747646;82;21399;-87
2020/12/08 09:54:38;;;;;;;66.12;41.40;;;;;;;3.13;76.64;95916.34;1744577;81;21114;-86
2020/12/08 09:57:07;;;;;;;57.60;37.85;;;;;;;3.16;76.50;95919.91;1747288;80;21110;-85
2020/12/08 09:59:35;;;;;;;59.98;37.53;;;;;;;3.27;76.55;95918.88;1745477;80;21094;-84
2020/12/08 10:02:04;;;;;;;57.70;36.93;;;;;;;3.37;76.50;95942.70;1746139;81;21668;-85
2020/12/08 10:04:33;;;;;;;68.75;42.93;;;;;;;3.30;76.26;95944.27;1744528;80;21253;-85
2020/12/08 10:06:59;;;;;;;63.78;39.48;;;;;;;3.13;76.17;95941.22;1709190;82;21165;-86
2020/12/08 10:09:28;;;;;;;69.87;45.70;;;;;;;3.11;76.82;95935.42;1740253;81;21320;-87
2020/12/08 10:11:54;;;;;;;76.40;47.98;;;;;;;3.05;76.55;95934.70;1728075;82;21090;-86
2020/12/08 10:14:21;;;;;;;77.62;47.25;;;;;;;3.04;76.63;95928.77;1745154;80;21368;-85
2020/12/08 10:16:49;;;;;;;66.35;42.50;;;;;;;3.09;76.76;95921.45;1733960;81;21108;-87
2020/12/08 10:19:18;;;;;;;64.00;41.70;;;;;;;3.17;76.73;95916.86;1693308;83;21142;-87
2020/12/08 10:21:44;;;;;;;64.15;41.53;;;;;;;3.25;76.72;95917.75;1666778;85;21135;-85
2020/12/08 10:24:10;;;;;;;56.25;38.30;;;;;;;3.33;76.75;95910.58;1677547;84;21254;-86
2020/12/08 10:26:36;;;;;;;76.37;48.63;;;;;;;3.40;76.80;95915.44;1739002;80;21425;-86
2020/12/08 10:29:03;;;;;;;80.72;52.85;;;;;;;3.42;76.87;95922.55;1717056;80;21426;-89
2020/12/08 10:31:31;;;;;;;77.03;50.98;;;;;;;3.47;77.07;95924.66;1713153;82;21216;-88
2020/12/08 10:33:57;;;;;;;68.37;43.75;;;;;;;3.56;76.99;95924.55;1715204;82;21146;-87
2020/12/08 10:36:23;;;;;;;72.65;45.45;;;;;;;3.66;76.82;95927.04;1717370;82;21252;-85
2020/12/08 10:38:49;;;;;;;66.90;41.95;;;;;;;3.71;76.71;95916.30;1720332;82;21249;-88
2020/12/08 10:41:20;;;;;;;71.87;44.13;;;;;;;3.77;76.77;95907.53;1727042;82;21118;-87
2020/12/08 10:43:46;;;;;;;59.53;38.73;;;;;;;3.81;76.51;95908.03;1714487;82;21134;-87
2020/12/08 10:46:13;;;;;;;72.65;46.65;;;;;;;3.90;76.53;95897.66;1728768;82;21121;-86
2020/12/08 10:48:39;;;;;;;66.02;44.45;;;;;;;3.95;76.58;95906.67;1706142;82;21359;-86
2020/12/08 10:51:04;;;;;;;67.15;44.98;;;;;;;4.00;76.51;95896.25;1715070;82;21159;-85
2020/12/08 10:53:31;;;;;;;50.70;35.60;;;;;;;4.18;76.46;95901.31;1724503;82;21404;-86
2020/12/08 10:55:57;;;;;;;72.87;45.30;;;;;;;4.31;76.29;95900.89;1716315;82;21159;-83
2020/12/08 10:58:23;;;;;;;77.78;49.18;;;;;;;4.20;75.84;95898.91;1716957;82;21147;-84
2020/12/08 11:00:51;;;;;;;81.60;48.23;;;;;;;4.17;75.96;95899.23;1721331;82;21126;-84
2020/12/08 11:03:17;;;;;;;84.22;52.73;;;;;;;4.12;75.79;95892.46;1710291;82;21130;-84
2020/12/08 11:05:43;;;;;;;80.47;48.55;;;;;;;4.14;76.03;95893.11;1715359;82;21125;-85
2020/12/08 11:08:11;;;;;;;80.87;50.17;;;;;;;4.21;75.86;95901.00;1713170;82;21142;-85
2020/12/08 11:10:38;;;;;;;83.85;48.83;;;;;;;4.28;75.87;95903.78;1714176;82;21442;-86
2020/12/08 11:13:04;;;;;;;53.70;35.88;;;;;;;4.38;75.85;95903.16;1717707;82;21130;-85
2020/12/08 11:15:30;;;;;;;82.97;53.68;;;;;;;4.43;75.64;95897.09;1720772;82;21150;-85
2020/12/08 11:17:57;;;;;;;80.32;50.45;;;;;;;4.43;75.67;95910.77;1719146;83;21415;-84
2020/12/08 11:20:23;;;;;;;92.90;55.55;;;;;;;4.50;75.80;95909.65;1718276;82;21161;-84
2020/12/08 11:22:49;;;;;;;91.95;58.30;;;;;;;4.55;75.52;95911.27;1702434;83;21125;-85
2020/12/08 11:25:16;;;;;;;76.77;46.30;;;;;;;4.46;75.30;95901.92;1728260;82;21106;-85
2020/12/08 11:27:42;;;;;;;91.47;54.95;;;;;;;4.51;75.02;95919.78;1714480;81;21154;-85
2020/12/08 11:30:08;;;;;;;85.95;53.73;;;;;;;4.56;74.94;95903.09;1732012;80;21293;-85
2020/12/08 11:32:34;;;;;;;81.90;51.58;;;;;;;4.53;75.03;95915.77;1731989;80;21345;-84